QTR1129 OOMS-OTHH
Flight info
| Callsign | QTR1129 |
|---|---|
| Flight time | N/A |
| Altitude | 32000 |
| Route | MCT N718 ITRAX P899 TOVOX |
| Aircraft | A320/M-SDE3FGHIRWY/LB1 |
Departure
| Time | 2026-05-05 11:49 |
|---|---|
| Airport | Muscat International Airport (OOMS) |
Arrival
| Time | N/A |
|---|---|
| Airport | Hamad International Airport (OTHH) |
| Time | Latitude | Longitude | Altitude | Speed | Heading |
|---|---|---|---|---|---|
| 2026-05-05 11:19 | 23.60339 | 58.28562 | 38 ft | 0 kts | 85° |
| 2026-05-05 11:35 | 23.60338 | 58.28550 | 38 ft | 4 kts | 85° |
| 2026-05-05 11:35 | 23.60336 | 58.28521 | 38 ft | 4 kts | 84° |
| 2026-05-05 11:35 | 23.60332 | 58.28492 | 38 ft | 4 kts | 73° |
| 2026-05-05 11:36 | 23.60321 | 58.28466 | 35 ft | 4 kts | 47° |
| 2026-05-05 11:36 | 23.60303 | 58.28454 | 37 ft | 2 kts | 355° |
| 2026-05-05 11:36 | 23.60298 | 58.28455 | 35 ft | 0 kts | 355° |
| 2026-05-05 11:38 | 23.60301 | 58.28455 | 35 ft | 1 kts | 355° |
| 2026-05-05 11:38 | 23.60321 | 58.28451 | 38 ft | 4 kts | 347° |
| 2026-05-05 11:39 | 23.60349 | 58.28424 | 38 ft | 7 kts | 303° |
| 2026-05-05 11:39 | 23.60356 | 58.28368 | 38 ft | 9 kts | 263° |
| 2026-05-05 11:39 | 23.60348 | 58.28295 | 38 ft | 11 kts | 263° |
| 2026-05-05 11:39 | 23.60342 | 58.28204 | 38 ft | 13 kts | 267° |
| 2026-05-05 11:40 | 23.60335 | 58.28099 | 38 ft | 15 kts | 266° |
| 2026-05-05 11:40 | 23.60327 | 58.27979 | 38 ft | 17 kts | 266° |
| 2026-05-05 11:40 | 23.60378 | 58.27865 | 39 ft | 18 kts | 310° |
| 2026-05-05 11:40 | 23.60468 | 58.27752 | 39 ft | 21 kts | 306° |
| 2026-05-05 11:41 | 23.60478 | 58.27597 | 39 ft | 22 kts | 264° |
| 2026-05-05 11:41 | 23.60463 | 58.27424 | 39 ft | 24 kts | 264° |
| 2026-05-05 11:41 | 23.60432 | 58.27303 | 39 ft | 13 kts | 218° |
| 2026-05-05 11:41 | 23.60338 | 58.27301 | 40 ft | 15 kts | 174° |
| 2026-05-05 11:42 | 23.60227 | 58.27313 | 40 ft | 17 kts | 174° |
| 2026-05-05 11:42 | 23.60102 | 58.27323 | 40 ft | 19 kts | 176° |
| 2026-05-05 11:42 | 23.59963 | 58.27337 | 40 ft | 21 kts | 175° |
| 2026-05-05 11:42 | 23.59834 | 58.27349 | 40 ft | 17 kts | 174° |
| 2026-05-05 11:43 | 23.59734 | 58.27359 | 40 ft | 12 kts | 175° |
| 2026-05-05 11:43 | 23.59711 | 58.27361 | 40 ft | 2 kts | 175° |
| 2026-05-05 11:43 | 23.59689 | 58.27363 | 40 ft | 5 kts | 175° |
| 2026-05-05 11:43 | 23.59649 | 58.27366 | 40 ft | 7 kts | 175° |
| 2026-05-05 11:44 | 23.59593 | 58.27371 | 40 ft | 9 kts | 175° |
| 2026-05-05 11:44 | 23.59529 | 58.27352 | 41 ft | 11 kts | 227° |
| 2026-05-05 11:44 | 23.59512 | 58.27266 | 41 ft | 13 kts | 265° |
| 2026-05-05 11:44 | 23.59504 | 58.27160 | 41 ft | 15 kts | 265° |
| 2026-05-05 11:45 | 23.59496 | 58.27042 | 41 ft | 17 kts | 265° |
| 2026-05-05 11:45 | 23.59485 | 58.26908 | 41 ft | 18 kts | 265° |
| 2026-05-05 11:45 | 23.59473 | 58.26763 | 42 ft | 20 kts | 265° |
| 2026-05-05 11:45 | 23.59438 | 58.26681 | 42 ft | 11 kts | 205° |
| 2026-05-05 11:46 | 23.59378 | 58.26680 | 42 ft | 0 kts | 175° |
| 2026-05-05 11:46 | 23.59374 | 58.26680 | 42 ft | 2 kts | 175° |
| 2026-05-05 11:47 | 23.59353 | 58.26682 | 42 ft | 4 kts | 175° |
| 2026-05-05 11:47 | 23.59314 | 58.26686 | 42 ft | 7 kts | 175° |
| 2026-05-05 11:47 | 23.59261 | 58.26690 | 42 ft | 8 kts | 175° |
| 2026-05-05 11:47 | 23.59199 | 58.26699 | 43 ft | 10 kts | 161° |
| 2026-05-05 11:48 | 23.59175 | 58.26804 | 42 ft | 0 kts | 85° |
| 2026-05-05 11:48 | 23.59176 | 58.26821 | 42 ft | 18 kts | 85° |
| 2026-05-05 11:49 | 23.59216 | 58.27235 | 42 ft | 89 kts | 86° |
| 2026-05-05 11:49 | 23.59283 | 58.28117 | 40 ft | 141 kts | 84° |
| 2026-05-05 11:49 | 23.59344 | 58.29281 | 420 ft | 153 kts | 85° |
| 2026-05-05 11:49 | 23.59392 | 58.30431 | 1089 ft | 152 kts | 80° |
| 2026-05-05 11:50 | 23.59493 | 58.31601 | 1485 ft | 161 kts | 83° |
| 2026-05-05 11:50 | 23.59779 | 58.32856 | 1626 ft | 184 kts | 57° |
| 2026-05-05 11:50 | 23.60910 | 58.33655 | 1797 ft | 215 kts | 14° |
| 2026-05-05 11:50 | 23.62474 | 58.33358 | 1987 ft | 250 kts | 333° |
| 2026-05-05 11:51 | 23.63694 | 58.31923 | 2324 ft | 277 kts | 295° |
| 2026-05-05 11:51 | 23.63977 | 58.29831 | 2891 ft | 285 kts | 258° |
| 2026-05-05 11:51 | 23.63150 | 58.27901 | 3625 ft | 282 kts | 225° |
| 2026-05-05 11:51 | 23.61691 | 58.26486 | 4407 ft | 281 kts | 217° |
| 2026-05-05 11:52 | 23.60162 | 58.25150 | 5228 ft | 282 kts | 223° |
| 2026-05-05 11:52 | 23.59134 | 58.23315 | 6026 ft | 287 kts | 250° |
| 2026-05-05 11:52 | 23.58763 | 58.21180 | 6862 ft | 288 kts | 263° |
| 2026-05-05 11:52 | 23.58722 | 58.18995 | 7656 ft | 289 kts | 268° |
| 2026-05-05 11:53 | 23.58810 | 58.16798 | 8428 ft | 292 kts | 269° |
| 2026-05-05 11:53 | 23.58883 | 58.15336 | 8928 ft | 294 kts | 269° |
| 2026-05-05 11:53 | 23.59003 | 58.12377 | 9930 ft | 297 kts | 268° |
| 2026-05-05 11:53 | 23.59057 | 58.10082 | 10345 ft | 312 kts | 269° |
| 2026-05-05 11:54 | 23.59084 | 58.07643 | 10560 ft | 332 kts | 267° |
| 2026-05-05 11:54 | 23.59090 | 58.05096 | 11086 ft | 338 kts | 267° |
| 2026-05-05 11:54 | 23.59084 | 58.02520 | 11702 ft | 342 kts | 268° |
| 2026-05-05 11:54 | 23.59075 | 58.00760 | 12132 ft | 344 kts | 269° |
| 2026-05-05 11:55 | 23.59062 | 57.98176 | 12768 ft | 347 kts | 270° |
| 2026-05-05 11:55 | 23.59049 | 57.95521 | 13393 ft | 351 kts | 270° |
| 2026-05-05 11:55 | 23.59038 | 57.92848 | 13973 ft | 354 kts | 270° |
| 2026-05-05 11:55 | 23.59030 | 57.90159 | 14596 ft | 355 kts | 270° |
| 2026-05-05 11:56 | 23.59019 | 57.87473 | 15242 ft | 356 kts | 271° |
| 2026-05-05 11:56 | 23.59008 | 57.84770 | 15882 ft | 356 kts | 272° |
| 2026-05-05 11:56 | 23.58998 | 57.82061 | 16511 ft | 358 kts | 272° |
| 2026-05-05 11:56 | 23.58994 | 57.79330 | 17106 ft | 361 kts | 272° |
| 2026-05-05 11:57 | 23.58995 | 57.76590 | 17699 ft | 364 kts | 271° |
| 2026-05-05 11:57 | 23.58997 | 57.73827 | 18248 ft | 367 kts | 272° |
| 2026-05-05 11:57 | 23.59001 | 57.71031 | 18800 ft | 369 kts | 272° |
| 2026-05-05 11:57 | 23.59007 | 57.68235 | 19362 ft | 370 kts | 272° |
| 2026-05-05 11:58 | 23.59011 | 57.65454 | 19911 ft | 372 kts | 271° |
| 2026-05-05 11:58 | 23.59014 | 57.62618 | 20410 ft | 375 kts | 271° |
| 2026-05-05 11:58 | 23.59012 | 57.59762 | 20912 ft | 379 kts | 271° |
| 2026-05-05 11:58 | 23.59008 | 57.56841 | 21422 ft | 381 kts | 271° |
| 2026-05-05 11:59 | 23.59004 | 57.53979 | 21932 ft | 384 kts | 270° |
| 2026-05-05 11:59 | 23.58998 | 57.51059 | 22455 ft | 386 kts | 270° |
| 2026-05-05 11:59 | 23.58992 | 57.48118 | 22962 ft | 389 kts | 270° |
| 2026-05-05 11:59 | 23.58986 | 57.45155 | 23441 ft | 392 kts | 270° |
| 2026-05-05 12:00 | 23.58982 | 57.42171 | 23833 ft | 395 kts | 270° |
| 2026-05-05 12:00 | 23.58978 | 57.39176 | 24244 ft | 397 kts | 270° |
| 2026-05-05 12:00 | 23.58972 | 57.36144 | 24672 ft | 399 kts | 270° |
| 2026-05-05 12:00 | 23.58962 | 57.33116 | 25080 ft | 400 kts | 270° |
| 2026-05-05 12:01 | 23.58952 | 57.30082 | 25469 ft | 403 kts | 270° |
| 2026-05-05 12:01 | 23.58944 | 57.27010 | 25868 ft | 405 kts | 270° |
| 2026-05-05 12:01 | 23.58935 | 57.23948 | 26253 ft | 407 kts | 270° |
| 2026-05-05 12:01 | 23.58925 | 57.20853 | 26625 ft | 408 kts | 270° |
| 2026-05-05 12:02 | 23.58914 | 57.17743 | 27002 ft | 410 kts | 270° |
| 2026-05-05 12:02 | 23.58921 | 57.14640 | 27369 ft | 412 kts | 273° |
| 2026-05-05 12:02 | 23.59308 | 57.11533 | 27694 ft | 414 kts | 283° |
| 2026-05-05 12:02 | 23.60192 | 57.08589 | 28060 ft | 416 kts | 292° |
| 2026-05-05 12:03 | 23.61374 | 57.05700 | 28427 ft | 417 kts | 293° |
| 2026-05-05 12:03 | 23.62561 | 57.02797 | 28810 ft | 420 kts | 292° |
| 2026-05-05 12:03 | 23.63743 | 56.99884 | 29168 ft | 422 kts | 292° |
| 2026-05-05 12:03 | 23.64924 | 56.96958 | 29532 ft | 424 kts | 292° |
| 2026-05-05 12:04 | 23.66119 | 56.93997 | 29886 ft | 426 kts | 292° |
| 2026-05-05 12:04 | 23.67309 | 56.91048 | 30194 ft | 428 kts | 292° |
| 2026-05-05 12:04 | 23.68515 | 56.88064 | 30496 ft | 429 kts | 292° |
| 2026-05-05 12:04 | 23.69717 | 56.85088 | 30786 ft | 431 kts | 292° |
| 2026-05-05 12:05 | 23.70927 | 56.82090 | 31087 ft | 432 kts | 292° |
| 2026-05-05 12:05 | 23.72141 | 56.79081 | 31390 ft | 433 kts | 292° |
| 2026-05-05 12:05 | 23.73358 | 56.76066 | 31738 ft | 432 kts | 292° |
| 2026-05-05 12:05 | 23.74568 | 56.73066 | 31830 ft | 428 kts | 292° |
| 2026-05-05 12:06 | 23.75729 | 56.70187 | 31848 ft | 413 kts | 292° |
| 2026-05-05 12:06 | 23.76892 | 56.67308 | 31848 ft | 407 kts | 292° |
| 2026-05-05 12:06 | 23.79142 | 56.61707 | 31850 ft | 404 kts | 292° |
| 2026-05-05 12:07 | 23.81390 | 56.56109 | 31852 ft | 403 kts | 292° |
| 2026-05-05 12:07 | 23.83640 | 56.50504 | 31850 ft | 403 kts | 292° |
| 2026-05-05 12:08 | 23.85897 | 56.44884 | 31851 ft | 403 kts | 292° |
| 2026-05-05 12:08 | 23.88137 | 56.39286 | 31845 ft | 403 kts | 292° |
| 2026-05-05 12:09 | 23.90371 | 56.33680 | 31842 ft | 403 kts | 292° |
| 2026-05-05 12:09 | 23.92597 | 56.28092 | 31849 ft | 403 kts | 292° |
| 2026-05-05 12:10 | 23.94984 | 56.22552 | 31846 ft | 404 kts | 301° |
| 2026-05-05 12:10 | 23.98134 | 56.17460 | 31845 ft | 404 kts | 302° |
| 2026-05-05 12:11 | 24.01285 | 56.12371 | 31846 ft | 404 kts | 302° |
| 2026-05-05 12:11 | 24.04425 | 56.07270 | 31835 ft | 404 kts | 302° |
| 2026-05-05 12:12 | 24.07547 | 56.02191 | 31835 ft | 404 kts | 302° |
| 2026-05-05 12:12 | 24.10697 | 55.97061 | 31820 ft | 404 kts | 302° |
| 2026-05-05 12:13 | 24.13826 | 55.91958 | 31817 ft | 404 kts | 302° |
| 2026-05-05 12:13 | 24.16940 | 55.86881 | 31803 ft | 404 kts | 302° |
| 2026-05-05 12:14 | 24.20059 | 55.81775 | 31791 ft | 403 kts | 300° |
| 2026-05-05 12:14 | 24.22206 | 55.76164 | 31781 ft | 400 kts | 284° |
| 2026-05-05 12:15 | 24.23624 | 55.70277 | 31777 ft | 400 kts | 284° |
| 2026-05-05 12:15 | 24.25059 | 55.64393 | 31772 ft | 400 kts | 284° |
| 2026-05-05 12:16 | 24.26467 | 55.58489 | 31774 ft | 400 kts | 282° |
| 2026-05-05 12:16 | 24.27639 | 55.52514 | 31782 ft | 400 kts | 281° |
| 2026-05-05 12:17 | 24.28728 | 55.46548 | 31784 ft | 400 kts | 281° |
| 2026-05-05 12:17 | 24.29854 | 55.40561 | 31781 ft | 400 kts | 281° |
| 2026-05-05 12:18 | 24.30867 | 55.34605 | 31776 ft | 399 kts | 276° |
| 2026-05-05 12:18 | 24.31486 | 55.28625 | 31772 ft | 399 kts | 276° |
| 2026-05-05 12:19 | 24.32101 | 55.22502 | 31761 ft | 399 kts | 276° |
| 2026-05-05 12:19 | 24.32714 | 55.16447 | 31762 ft | 399 kts | 276° |
| 2026-05-05 12:20 | 24.33325 | 55.10386 | 31756 ft | 399 kts | 276° |
| 2026-05-05 12:20 | 24.33934 | 55.04330 | 31752 ft | 399 kts | 276° |
| 2026-05-05 12:21 | 24.34539 | 54.98278 | 31746 ft | 400 kts | 276° |
| 2026-05-05 12:21 | 24.35141 | 54.92262 | 31743 ft | 400 kts | 276° |
| 2026-05-05 12:22 | 24.35743 | 54.86206 | 31741 ft | 399 kts | 275° |
| 2026-05-05 12:22 | 24.36339 | 54.80146 | 31742 ft | 399 kts | 275° |
| 2026-05-05 12:23 | 24.36928 | 54.74108 | 31736 ft | 398 kts | 275° |
| 2026-05-05 12:23 | 24.37521 | 54.68071 | 31734 ft | 398 kts | 275° |
| 2026-05-05 12:24 | 24.38106 | 54.62043 | 31735 ft | 398 kts | 275° |
| 2026-05-05 12:24 | 24.38692 | 54.55986 | 31734 ft | 398 kts | 275° |
| 2026-05-05 12:25 | 24.39366 | 54.50011 | 31730 ft | 398 kts | 282° |
| 2026-05-05 12:25 | 24.40680 | 54.44124 | 31731 ft | 398 kts | 282° |
| 2026-05-05 12:26 | 24.42004 | 54.38203 | 31730 ft | 398 kts | 282° |
| 2026-05-05 12:26 | 24.43322 | 54.32305 | 31758 ft | 398 kts | 282° |
| 2026-05-05 12:27 | 24.44637 | 54.26396 | 31773 ft | 398 kts | 282° |
| 2026-05-05 12:27 | 24.45951 | 54.20487 | 31775 ft | 398 kts | 282° |
| 2026-05-05 12:28 | 24.47252 | 54.14593 | 31777 ft | 397 kts | 282° |
| 2026-05-05 12:28 | 24.48551 | 54.08688 | 31777 ft | 397 kts | 282° |
| 2026-05-05 12:29 | 24.49858 | 54.02809 | 31771 ft | 396 kts | 282° |
| 2026-05-05 12:29 | 24.51143 | 53.96968 | 31768 ft | 396 kts | 282° |
| 2026-05-05 12:30 | 24.52435 | 53.91071 | 31773 ft | 396 kts | 282° |
| 2026-05-05 12:30 | 24.53850 | 53.85235 | 31771 ft | 396 kts | 284° |
| 2026-05-05 12:31 | 24.55364 | 53.79417 | 31773 ft | 396 kts | 284° |
| 2026-05-05 12:31 | 24.56866 | 53.73580 | 31778 ft | 396 kts | 283° |
| 2026-05-05 12:32 | 24.58325 | 53.67760 | 31781 ft | 395 kts | 283° |